LIRQ Airport Information

Runway Information
Runway 05 Length 5741 ft width 148 ft
Elevation 123 ft Threshold 492 ft Heading 48
Runway 23 Length 5741 ft Width 148 ft
Elevation 132 ft Threshold 2287 ft Heading 228
Airport Frequencies
Type APP Name APP Frequency 126.075 MHZ
Type ATIS Name ATIS Frequency 129.35 MHZ
Type TWR Name FIRENZE TW Frequency 118.3 MHZ
Airport Navaids
Type VOR-DME Name Peretola Frequency 112500 KHZ
Airport Weather Information & NOTAM
ADDS - METARS form results

(2310 UTC 29 June 2022)
Data provider http://aviationweather.gov/metar/data/
 
METAR text: LIRQ 292250Z VRB01KT CAVOK 20/18 Q1013
Conditions at: LIRQ (FIRENZE/PERETOLA, IT) observed 2250 UTC 29 June 2022
Temperature: 20.0°C (68°F)
Dewpoint: 18.0°C (64°F) [RH = 88%]
Pressure (altimeter): 29.91 inches Hg (1013.0 mb)
Winds: variable direction winds at 1 MPH (1 knots; 0.5 m/s)
Visibility: 6 or more miles (10+ km)
Ceiling: ceiling and visibility are OK
Clouds: unknown
Weather: no significant weather observed at this time

METAR text: LIRQ 292220Z VRB01KT CAVOK 21/17 Q1013
Conditions at: LIRQ (FIRENZE/PERETOLA, IT) observed 2220 UTC 29 June 2022
Temperature: 21.0°C (70°F)
Dewpoint: 17.0°C (63°F) [RH = 78%]
Pressure (altimeter): 29.91 inches Hg (1013.0 mb)
Winds: variable direction winds at 1 MPH (1 knots; 0.5 m/s)
Visibility: 6 or more miles (10+ km)
Ceiling: ceiling and visibility are OK
Clouds: unknown
Weather: no significant weather observed at this time

Forecast for: LIRQ (FIRENZE/PERETOLA, IT)
Text: TAF LIRQ 291700Z 2918/3018 VRB05KT 9999 SCT030
Forecast period: 1800 UTC 29 June 2022 to 0800 UTC 30 June 2022
Forecast type: FROM: standard forecast or significant change
Winds: variable direction winds at 6 MPH (5 knots; 2.6 m/s)
Visibility: 6 or more miles (10+ km)
Ceiling: at least 12,000 feet AGL
Clouds: scattered clouds at 3000 feet AGL
Weather: no significant weather forecast for this period
Text: BECMG 3008/3010 25012KT
Forecast period: 0800 to 1800 UTC 30 June 2022
Forecast type: BECOMING: Conditions expected to become as follows by 1000 UTC 30 June 2022
Winds: from the WSW (250 degrees) at 14 MPH (12 knots; 6.2 m/s)
Visibility: 6 or more miles (10+ km)
Ceiling: at least 12,000 feet AGL
Clouds: scattered clouds at 3000 feet AGL
Weather: no significant weather forecast for this period